createdAt,value
2023-04-01T00:01:17.928Z,11.32
2023-04-01T00:04:21.357Z,11.35
2023-04-01T00:07:23.601Z,11.39
2023-04-01T00:10:25.832Z,11.42
2023-04-01T00:13:28.175Z,11.39
2023-04-01T00:16:30.421Z,11.25
2023-04-01T00:19:33.590Z,11.18
2023-04-01T00:22:36.205Z,11.09
2023-04-01T00:25:38.554Z,11.18
2023-04-01T00:28:41.798Z,11.21
2023-04-01T00:31:44.063Z,11.08
2023-04-01T00:34:46.523Z,10.94
2023-04-01T00:37:49.104Z,10.94
2023-04-01T00:40:58.311Z,11.00
2023-04-01T00:44:19.128Z,10.94
2023-04-01T00:47:23.252Z,10.95
2023-04-01T00:50:27.082Z,10.82
2023-04-01T00:53:30.803Z,10.84
2023-04-01T00:56:37.832Z,10.72
2023-04-01T00:59:46.148Z,10.74
2023-04-01T01:02:51.995Z,10.70
2023-04-01T01:06:12.941Z,10.65
2023-04-01T01:09:31.745Z,10.71
2023-04-01T01:12:41.863Z,10.77
2023-04-01T01:15:49.115Z,10.82
2023-04-01T01:19:10.580Z,10.74
2023-04-01T01:22:21.737Z,10.65
2023-04-01T01:25:46.978Z,10.56
2023-04-01T01:29:07.170Z,10.61
2023-04-01T01:32:43.482Z,10.53
2023-04-01T01:35:57.830Z,10.49
2023-04-01T01:39:00.085Z,10.41
2023-04-01T01:42:07.293Z,10.43
2023-04-01T01:45:12.928Z,10.37
2023-04-01T01:48:17.599Z,10.28
2023-04-01T01:51:21.655Z,10.32
2023-04-01T01:54:23.956Z,10.29
2023-04-01T01:57:32.532Z,10.28
2023-04-01T02:00:36.743Z,10.26
2023-04-01T02:03:41.410Z,10.28
2023-04-01T02:06:50.744Z,10.24
2023-04-01T02:09:54.678Z,10.23
2023-04-01T02:13:07.214Z,10.20
2023-04-01T02:16:17.032Z,10.16
2023-04-01T02:19:23.783Z,10.14
2023-04-01T02:22:35.830Z,10.13
2023-04-01T02:25:40.513Z,10.14
2023-04-01T02:28:45.283Z,10.09
2023-04-01T02:31:48.556Z,10.03
2023-04-01T02:34:51.544Z,10.10
2023-04-01T02:37:55.366Z,10.09
2023-04-01T02:41:01.495Z,10.09
2023-04-01T02:44:04.114Z,10.12
2023-04-01T02:47:06.391Z,10.06
2023-04-01T02:50:09.889Z,10.08
2023-04-01T02:53:12.978Z,10.05
2023-04-01T02:56:15.410Z,10.09
2023-04-01T02:59:17.698Z,10.06
2023-04-01T03:02:20.029Z,10.10
2023-04-01T03:05:22.497Z,10.13
2023-04-01T03:08:24.750Z,10.10
2023-04-01T03:11:27.298Z,10.03
2023-04-01T03:14:29.624Z,10.12
2023-04-01T03:17:32.479Z,10.16
2023-04-01T03:20:34.827Z,10.17
2023-04-01T03:23:37.047Z,10.14
2023-04-01T03:26:39.310Z,10.13
2023-04-01T03:29:42.139Z,10.12
2023-04-01T03:32:45.028Z,10.12
2023-04-01T03:35:47.438Z,10.10
2023-04-01T03:38:50.265Z,10.09
2023-04-01T03:41:59.112Z,9.99
2023-04-01T03:45:01.573Z,10.08
2023-04-01T03:48:04.203Z,10.09
2023-04-01T03:51:09.815Z,10.05
2023-04-01T03:54:12.444Z,10.05
2023-04-01T03:57:15.400Z,10.14
2023-04-01T04:00:18.042Z,10.09
2023-04-01T04:03:24.219Z,10.12
2023-04-01T04:06:27.397Z,10.10
2023-04-01T04:09:31.679Z,10.16
2023-04-01T04:12:34.066Z,10.13
2023-04-01T04:15:36.293Z,10.28
2023-04-01T04:18:38.537Z,10.32
2023-04-01T04:21:41.917Z,10.28
2023-04-01T04:24:44.242Z,10.08
2023-04-01T04:27:48.626Z,10.05
2023-04-01T04:30:51.418Z,10.23
2023-04-01T04:33:54.155Z,10.24
2023-04-01T04:36:56.757Z,10.30
2023-04-01T04:40:03.711Z,10.26
2023-04-01T04:43:07.104Z,10.36
2023-04-01T04:46:10.978Z,10.39
2023-04-01T04:49:14.210Z,10.06
2023-04-01T04:52:16.822Z,9.90
2023-04-01T04:55:19.259Z,9.89
2023-04-01T04:58:25.980Z,9.89
2023-04-01T05:01:28.944Z,9.98
2023-04-01T05:04:39.934Z,10.02
2023-04-01T05:07:45.319Z,10.06
2023-04-01T05:10:47.843Z,10.03
2023-04-01T05:13:51.350Z,9.93
2023-04-01T05:16:55.430Z,9.74
2023-04-01T05:20:05.291Z,9.89
2023-04-01T05:23:13.569Z,10.21
2023-04-01T05:26:16.128Z,10.34
2023-04-01T05:29:18.457Z,10.44
2023-04-01T05:32:23.737Z,10.51
2023-04-01T05:35:26.279Z,10.47
2023-04-01T05:38:28.623Z,10.40
2023-04-01T05:41:30.955Z,10.37
2023-04-01T05:44:33.256Z,10.47
2023-04-01T05:47:55.810Z,10.57
2023-04-01T05:50:58.083Z,10.64
2023-04-01T05:54:00.532Z,10.56
2023-04-01T05:57:03.333Z,10.43
2023-04-01T06:00:06.487Z,10.57
2023-04-01T06:03:14.634Z,10.61
2023-04-01T06:06:26.227Z,10.56
2023-04-01T06:09:31.414Z,10.59
2023-04-01T06:12:51.656Z,10.64
2023-04-01T06:16:30.601Z,10.81
2023-04-01T06:19:58.486Z,10.75
2023-04-01T06:23:03.605Z,10.85
2023-04-01T06:26:31.602Z,10.78
2023-04-01T06:29:44.901Z,10.85
2023-04-01T06:33:05.958Z,10.88
2023-04-01T06:36:16.740Z,10.84
2023-04-01T06:39:34.021Z,10.88
2023-04-01T06:42:59.746Z,11.00
2023-04-01T06:46:29.539Z,11.11
2023-04-01T06:50:24.913Z,11.04
2023-04-01T06:54:14.685Z,11.16
2023-04-01T06:57:54.242Z,11.23
2023-04-01T07:01:03.338Z,11.28
2023-04-01T07:04:12.936Z,11.23
2023-04-01T07:07:37.610Z,11.25
2023-04-01T07:10:52.933Z,11.28
2023-04-01T07:14:37.259Z,11.12
2023-04-01T07:17:42.417Z,11.16
2023-04-01T07:20:46.230Z,11.16
2023-04-01T07:23:50.345Z,11.25
2023-04-01T07:27:18.350Z,11.32
2023-04-01T07:30:23.817Z,11.35
2023-04-01T07:33:47.881Z,11.49
2023-04-01T07:37:02.425Z,11.58
2023-04-01T07:40:14.218Z,11.63
2023-04-01T07:43:28.517Z,11.73
2023-04-01T07:46:54.796Z,11.87
2023-04-01T07:50:23.762Z,11.95
2023-04-01T07:53:34.994Z,11.98
2023-04-01T07:56:48.710Z,12.17
2023-04-01T08:00:24.010Z,12.04
2023-04-01T08:03:46.793Z,12.23
2023-04-01T08:07:29.633Z,12.40
2023-04-01T08:11:03.896Z,12.54
2023-04-01T08:14:32.834Z,12.61
2023-04-01T08:17:56.461Z,12.75
2023-04-01T08:21:02.297Z,12.73
2023-04-01T08:24:22.586Z,12.79
2023-04-01T08:27:36.592Z,12.85
2023-04-01T08:31:04.693Z,12.81
2023-04-01T08:34:25.074Z,13.03
2023-04-01T08:37:33.106Z,13.09
2023-04-01T08:40:57.838Z,13.12
2023-04-01T08:44:16.874Z,13.07
2023-04-01T08:47:38.653Z,13.22
2023-04-01T08:50:59.641Z,13.36
2023-04-01T08:54:18.007Z,13.51
2023-04-01T08:57:52.059Z,13.33
2023-04-01T09:01:48.983Z,13.78
2023-04-01T09:05:32.833Z,13.74
2023-04-01T09:09:03.150Z,13.74
2023-04-01T09:12:26.829Z,13.78
2023-04-01T09:15:35.650Z,13.78
2023-04-01T09:18:59.524Z,14.04
2023-04-01T09:22:20.526Z,14.22
2023-04-01T09:25:31.873Z,14.35
2023-04-01T09:28:52.808Z,14.55
2023-04-01T09:32:13.608Z,14.55
2023-04-01T09:35:48.534Z,14.55
2023-04-01T09:39:20.710Z,14.46
2023-04-01T09:42:39.233Z,14.59
2023-04-01T09:46:13.157Z,14.73
2023-04-01T09:49:33.892Z,14.77
2023-04-01T09:53:12.747Z,14.93
2023-04-01T09:56:37.312Z,15.01
2023-04-01T10:00:16.772Z,15.23
2023-04-01T10:03:50.725Z,15.58
2023-04-01T10:07:11.374Z,15.65
2023-04-01T10:10:35.853Z,15.48
2023-04-01T10:14:15.897Z,15.25
2023-04-01T10:17:33.487Z,15.57
2023-04-01T10:20:35.704Z,15.73
2023-04-01T10:24:08.353Z,15.52
2023-04-01T10:27:34.484Z,15.55
2023-04-01T10:30:58.073Z,15.69
2023-04-01T10:34:15.642Z,15.82
2023-04-01T10:37:45.642Z,15.73
2023-04-01T10:41:06.710Z,15.62
2023-04-01T10:44:48.817Z,15.65
2023-04-01T10:48:28.912Z,15.20
2023-04-01T10:51:58.768Z,15.37
2023-04-01T10:55:41.674Z,15.14
2023-04-01T10:59:32.921Z,15.16
2023-04-01T11:03:23.839Z,15.14
2023-04-01T11:07:26.288Z,15.31
2023-04-01T11:10:34.756Z,15.39
2023-04-01T11:13:56.065Z,15.48
2023-04-01T11:17:20.314Z,15.63
2023-04-01T11:20:54.292Z,15.72
2023-04-01T11:24:13.859Z,15.69
2023-04-01T11:27:51.931Z,15.96
2023-04-01T11:31:22.217Z,15.85
2023-04-01T11:34:33.673Z,16.12
2023-04-01T11:38:08.135Z,16.19
2023-04-01T11:41:50.467Z,16.14
2023-04-01T11:45:31.635Z,16.09
2023-04-01T11:49:19.269Z,16.41
2023-04-01T11:53:08.787Z,16.46
2023-04-01T11:56:54.981Z,16.54
2023-04-01T12:00:00.271Z,16.56
2023-04-01T12:03:35.911Z,16.44
2023-04-01T12:07:22.683Z,16.44
2023-04-01T12:10:58.789Z,16.34
2023-04-01T12:14:22.812Z,16.14
2023-04-01T12:17:40.296Z,16.07
2023-04-01T12:21:14.763Z,15.85
2023-04-01T12:24:29.040Z,16.10
2023-04-01T12:27:42.520Z,15.96
2023-04-01T12:31:04.856Z,15.78
2023-04-01T12:34:37.247Z,15.95
2023-04-01T12:38:04.114Z,16.05
2023-04-01T12:41:40.184Z,16.09
2023-04-01T12:44:54.994Z,16.00
2023-04-01T12:48:15.597Z,16.23
2023-04-01T12:51:48.023Z,16.17
2023-04-01T12:55:01.216Z,15.92
2023-04-01T12:58:26.624Z,15.89
2023-04-01T13:01:55.688Z,15.96
2023-04-01T13:05:32.244Z,16.19
2023-04-01T13:08:57.862Z,16.43
2023-04-01T13:12:17.461Z,16.75
2023-04-01T13:15:57.016Z,16.88
2023-04-01T13:19:12.028Z,17.89
2023-04-01T13:22:52.462Z,17.98
2023-04-01T13:26:42.099Z,17.32
2023-04-01T13:29:55.968Z,16.81
2023-04-01T13:33:19.712Z,16.47
2023-04-01T13:36:40.719Z,15.97
2023-04-01T13:40:09.117Z,15.49
2023-04-01T13:43:30.936Z,14.94
2023-04-01T13:46:48.145Z,14.05
2023-04-01T13:50:23.792Z,14.33
2023-04-01T13:53:37.850Z,14.53
2023-04-01T13:56:46.109Z,14.11
2023-04-01T14:00:05.828Z,14.06
2023-04-01T14:03:32.226Z,13.89
2023-04-01T14:06:50.646Z,13.58
2023-04-01T14:10:10.906Z,13.23
2023-04-01T14:13:21.906Z,13.09
2023-04-01T14:16:24.111Z,12.89
2023-04-01T14:19:35.207Z,12.68
2023-04-01T14:23:06.048Z,13.10
2023-04-01T14:26:11.182Z,14.08
2023-04-01T14:29:54.703Z,14.90
2023-04-01T14:33:21.599Z,15.37
2023-04-01T14:36:47.639Z,15.93
2023-04-01T14:40:01.116Z,15.70
2023-04-01T14:43:09.013Z,15.54
2023-04-01T14:46:29.921Z,15.65
2023-04-01T14:49:36.929Z,15.58
2023-04-01T14:52:42.485Z,15.58
2023-04-01T14:55:44.639Z,15.39
2023-04-01T14:58:51.329Z,15.54
2023-04-01T15:02:09.957Z,15.61
2023-04-01T15:05:46.621Z,15.06
2023-04-01T15:09:04.657Z,14.72
2023-04-01T15:12:36.025Z,14.50
2023-04-01T15:15:53.188Z,14.42
2023-04-01T15:19:16.104Z,14.15
2023-04-01T15:22:39.871Z,14.01
2023-04-01T15:26:06.726Z,13.98
2023-04-01T15:29:44.368Z,13.84
2023-04-01T15:33:15.126Z,13.67
2023-04-01T15:36:29.448Z,13.61
2023-04-01T15:39:40.529Z,13.53
2023-04-01T15:43:01.249Z,13.46
2023-04-01T15:46:40.466Z,13.42
2023-04-01T15:49:47.283Z,13.28
2023-04-01T15:53:34.255Z,13.17
2023-04-01T15:56:55.216Z,13.07
2023-04-01T16:00:06.306Z,13.02
2023-04-01T16:03:27.277Z,13.02
2023-04-01T16:06:38.959Z,12.88
2023-04-01T16:09:52.995Z,12.89
2023-04-01T16:13:14.140Z,12.85
2023-04-01T16:16:30.584Z,12.68
2023-04-01T16:19:38.618Z,12.68
2023-04-01T16:22:54.340Z,12.61
2023-04-01T16:26:07.107Z,12.62
2023-04-01T16:29:09.297Z,12.58
2023-04-01T16:32:37.910Z,12.49
2023-04-01T16:36:09.479Z,12.46
2023-04-01T16:39:28.603Z,12.46
2023-04-01T16:42:36.719Z,12.51
2023-04-01T16:46:26.879Z,12.46
2023-04-01T16:49:37.463Z,12.32
2023-04-01T16:52:54.801Z,12.20
2023-04-01T16:56:02.857Z,12.18
2023-04-01T16:59:16.082Z,12.11
2023-04-01T17:02:21.571Z,12.08
2023-04-01T17:05:54.309Z,12.01
2023-04-01T17:09:33.785Z,11.94
2023-04-01T17:12:53.858Z,11.90
2023-04-01T17:16:15.256Z,11.90
2023-04-01T17:19:29.936Z,11.87
2023-04-01T17:22:50.436Z,11.80
2023-04-01T17:26:34.274Z,11.70
2023-04-01T17:30:05.890Z,11.62
2023-04-01T17:33:20.038Z,11.62
2023-04-01T17:36:46.799Z,11.53
2023-04-01T17:40:24.370Z,11.49
2023-04-01T17:43:48.075Z,11.36
2023-04-01T17:47:12.521Z,11.35
2023-04-01T17:50:25.997Z,11.26
2023-04-01T17:53:48.989Z,11.26
2023-04-01T17:57:03.991Z,11.16
2023-04-01T18:00:20.808Z,11.08
2023-04-01T18:03:42.797Z,11.00
2023-04-01T18:07:03.872Z,10.95
2023-04-01T18:10:26.347Z,10.88
2023-04-01T18:13:42.605Z,10.82
2023-04-01T18:17:05.042Z,10.78
2023-04-01T18:20:45.873Z,10.72
2023-04-01T18:24:02.919Z,10.70
2023-04-01T18:27:32.143Z,10.61
2023-04-01T18:30:37.084Z,10.59
2023-04-01T18:33:54.655Z,10.54
2023-04-01T18:37:14.963Z,10.50
2023-04-01T18:40:26.551Z,10.47
2023-04-01T18:43:57.261Z,10.43
2023-04-01T18:47:17.086Z,10.43
2023-04-01T18:50:58.083Z,10.41
2023-04-01T18:54:34.241Z,10.36
2023-04-01T18:57:51.809Z,10.34
2023-04-01T19:01:12.828Z,10.32
2023-04-01T19:04:39.892Z,10.30
2023-04-01T19:07:47.113Z,10.29
2023-04-01T19:10:58.048Z,10.30
2023-04-01T19:14:00.345Z,10.28
2023-04-01T19:17:20.949Z,10.26
2023-04-01T19:20:26.800Z,10.26
2023-04-01T19:23:51.158Z,10.12
2023-04-01T19:27:19.246Z,10.17
2023-04-01T19:30:53.791Z,10.10
2023-04-01T19:34:22.839Z,10.03
2023-04-01T19:37:52.886Z,9.98
2023-04-01T19:40:57.650Z,9.93
2023-04-01T19:44:18.586Z,9.81
2023-04-01T19:47:23.610Z,9.83
2023-04-01T19:50:48.839Z,9.78
2023-04-01T19:54:18.104Z,9.75
2023-04-01T19:57:51.816Z,9.77
2023-04-01T20:00:59.017Z,9.75
2023-04-01T20:04:10.008Z,9.75
2023-04-01T20:07:44.805Z,9.79
2023-04-01T20:10:53.304Z,9.78
2023-04-01T20:14:31.112Z,9.71
2023-04-01T20:17:44.484Z,9.78
2023-04-01T20:21:15.524Z,9.77
2023-04-01T20:24:47.685Z,9.69
2023-04-01T20:28:05.342Z,9.69
2023-04-01T20:31:32.152Z,9.72
2023-04-01T20:34:57.791Z,9.65
2023-04-01T20:38:21.498Z,9.65
2023-04-01T20:41:23.720Z,9.68
2023-04-01T20:44:49.265Z,9.55
2023-04-01T20:47:57.352Z,9.61
2023-04-01T20:51:19.302Z,9.59
2023-04-01T20:54:42.420Z,9.57
2023-04-01T20:57:57.090Z,9.47
2023-04-01T21:01:28.318Z,9.18
2023-04-01T21:05:08.996Z,8.72
2023-04-01T21:08:29.394Z,8.53
2023-04-01T21:12:16.049Z,8.52
2023-04-01T21:15:27.058Z,8.48
2023-04-01T21:19:00.116Z,8.16
2023-04-01T21:22:35.649Z,8.25
2023-04-01T21:26:09.958Z,8.62
2023-04-01T21:29:26.982Z,8.73
2023-04-01T21:32:40.088Z,8.75
2023-04-01T21:36:09.109Z,8.79
2023-04-01T21:39:28.046Z,8.81
2023-04-01T21:42:58.082Z,8.99
2023-04-01T21:46:37.005Z,9.01
2023-04-01T21:50:00.930Z,9.03
2023-04-01T21:53:39.733Z,9.08
2023-04-01T21:57:23.508Z,8.81
2023-04-01T22:00:34.728Z,8.75
2023-04-01T22:04:11.934Z,8.28
2023-04-01T22:07:21.243Z,8.16
2023-04-01T22:10:27.498Z,7.99
2023-04-01T22:13:50.434Z,8.07
2023-04-01T22:17:14.708Z,7.97
2023-04-01T22:20:46.327Z,7.81
2023-04-01T22:23:55.460Z,7.69
2023-04-01T22:27:08.665Z,7.78
2023-04-01T22:30:24.709Z,7.90
2023-04-01T22:33:48.325Z,8.05
2023-04-01T22:37:10.000Z,7.99
2023-04-01T22:40:22.654Z,7.90
2023-04-01T22:43:44.989Z,7.77
2023-04-01T22:47:16.068Z,7.66
2023-04-01T22:50:23.955Z,7.67
2023-04-01T22:53:47.087Z,7.42
2023-04-01T22:56:54.521Z,7.18
2023-04-01T23:00:00.181Z,7.15
2023-04-01T23:03:26.600Z,7.18
2023-04-01T23:06:42.381Z,7.33
2023-04-01T23:09:44.972Z,7.50
2023-04-01T23:12:48.461Z,7.69
2023-04-01T23:15:53.940Z,7.66
2023-04-01T23:19:22.187Z,7.83
2023-04-01T23:22:33.234Z,7.87
2023-04-01T23:25:47.575Z,8.01
2023-04-01T23:28:58.065Z,7.94
2023-04-01T23:32:05.318Z,7.87
2023-04-01T23:35:17.977Z,7.77
2023-04-01T23:38:23.546Z,7.77
2023-04-01T23:41:31.778Z,7.93
2023-04-01T23:44:36.183Z,7.93
2023-04-01T23:47:42.313Z,7.91
2023-04-01T23:50:45.480Z,7.91
2023-04-01T23:53:49.187Z,7.97
2023-04-01T23:56:56.532Z,8.04
